sensor_id;sensor_type;location;lat;lon;timestamp;temperature;humidity
34837;DHT22;21053;50.848;4.652;2023-06-22T00:01:18;22.00;99.90
34837;DHT22;21053;50.848;4.652;2023-06-22T00:03:44;21.90;99.90
34837;DHT22;21053;50.848;4.652;2023-06-22T00:06:10;22.10;99.90
34837;DHT22;21053;50.848;4.652;2023-06-22T00:08:36;22.30;99.90
34837;DHT22;21053;50.848;4.652;2023-06-22T00:11:05;22.40;99.90
34837;DHT22;21053;50.848;4.652;2023-06-22T00:13:34;22.10;99.90
34837;DHT22;21053;50.848;4.652;2023-06-22T00:16:03;21.90;99.90
34837;DHT22;21053;50.848;4.652;2023-06-22T00:18:31;21.80;99.90
34837;DHT22;21053;50.848;4.652;2023-06-22T00:20:59;21.80;99.90
34837;DHT22;21053;50.848;4.652;2023-06-22T00:23:38;21.90;99.90
34837;DHT22;21053;50.848;4.652;2023-06-22T00:26:06;22.00;99.90
34837;DHT22;21053;50.848;4.652;2023-06-22T00:28:34;22.00;99.90
34837;DHT22;21053;50.848;4.652;2023-06-22T00:31:03;21.90;99.90
34837;DHT22;21053;50.848;4.652;2023-06-22T00:33:31;21.80;99.90
34837;DHT22;21053;50.848;4.652;2023-06-22T00:35:59;21.80;99.90
34837;DHT22;21053;50.848;4.652;2023-06-22T00:38:27;21.90;99.90
34837;DHT22;21053;50.848;4.652;2023-06-22T00:40:56;21.90;99.90
34837;DHT22;21053;50.848;4.652;2023-06-22T00:43:25;21.70;99.90
34837;DHT22;21053;50.848;4.652;2023-06-22T00:45:51;21.50;99.90
34837;DHT22;21053;50.848;4.652;2023-06-22T00:48:20;21.40;99.90
34837;DHT22;21053;50.848;4.652;2023-06-22T00:50:48;21.40;99.90
34837;DHT22;21053;50.848;4.652;2023-06-22T00:53:18;21.40;99.90
34837;DHT22;21053;50.848;4.652;2023-06-22T00:55:46;21.10;99.90
34837;DHT22;21053;50.848;4.652;2023-06-22T00:58:13;21.00;99.90
34837;DHT22;21053;50.848;4.652;2023-06-22T01:00:40;21.00;99.90
34837;DHT22;21053;50.848;4.652;2023-06-22T01:03:07;21.00;99.90
34837;DHT22;21053;50.848;4.652;2023-06-22T01:05:36;21.00;99.90
34837;DHT22;21053;50.848;4.652;2023-06-22T01:08:21;21.20;99.90
34837;DHT22;21053;50.848;4.652;2023-06-22T01:16:33;21.10;99.90
34837;DHT22;21053;50.848;4.652;2023-06-22T01:19:05;21.00;99.90
34837;DHT22;21053;50.848;4.652;2023-06-22T01:25:10;21.40;99.90
34837;DHT22;21053;50.848;4.652;2023-06-22T01:30:35;21.20;99.90
34837;DHT22;21053;50.848;4.652;2023-06-22T01:33:03;21.20;99.90
34837;DHT22;21053;50.848;4.652;2023-06-22T01:35:33;21.20;99.90
34837;DHT22;21053;50.848;4.652;2023-06-22T01:38:02;21.10;99.90
34837;DHT22;21053;50.848;4.652;2023-06-22T01:40:33;20.90;99.90
34837;DHT22;21053;50.848;4.652;2023-06-22T01:43:02;20.90;99.90
34837;DHT22;21053;50.848;4.652;2023-06-22T01:45:31;21.10;99.90
34837;DHT22;21053;50.848;4.652;2023-06-22T01:48:06;21.30;99.90
34837;DHT22;21053;50.848;4.652;2023-06-22T01:50:35;21.30;99.90
34837;DHT22;21053;50.848;4.652;2023-06-22T01:53:00;21.30;99.90
34837;DHT22;21053;50.848;4.652;2023-06-22T01:55:29;21.30;99.90
34837;DHT22;21053;50.848;4.652;2023-06-22T01:57:58;21.20;99.90
34837;DHT22;21053;50.848;4.652;2023-06-22T02:00:28;21.00;99.90
34837;DHT22;21053;50.848;4.652;2023-06-22T02:05:36;20.50;99.90
34837;DHT22;21053;50.848;4.652;2023-06-22T02:08:17;20.70;99.90
34837;DHT22;21053;50.848;4.652;2023-06-22T02:10:47;20.80;99.90
34837;DHT22;21053;50.848;4.652;2023-06-22T02:13:17;20.80;99.90
34837;DHT22;21053;50.848;4.652;2023-06-22T02:15:43;20.60;99.90
34837;DHT22;21053;50.848;4.652;2023-06-22T02:18:13;20.30;99.90
34837;DHT22;21053;50.848;4.652;2023-06-22T02:20:40;20.10;99.90
34837;DHT22;21053;50.848;4.652;2023-06-22T02:23:08;20.10;99.90
34837;DHT22;21053;50.848;4.652;2023-06-22T02:25:35;20.30;99.90
34837;DHT22;21053;50.848;4.652;2023-06-22T02:28:04;20.50;99.90
34837;DHT22;21053;50.848;4.652;2023-06-22T02:30:31;20.20;99.90
34837;DHT22;21053;50.848;4.652;2023-06-22T02:32:58;20.00;99.90
34837;DHT22;21053;50.848;4.652;2023-06-22T02:35:28;19.90;99.90
34837;DHT22;21053;50.848;4.652;2023-06-22T02:38:01;20.00;99.90
34837;DHT22;21053;50.848;4.652;2023-06-22T02:40:29;20.10;99.90
34837;DHT22;21053;50.848;4.652;2023-06-22T02:42:59;20.10;99.90
34837;DHT22;21053;50.848;4.652;2023-06-22T02:45:30;20.20;99.90
34837;DHT22;21053;50.848;4.652;2023-06-22T02:47:57;20.20;99.90
34837;DHT22;21053;50.848;4.652;2023-06-22T02:50:26;20.20;99.90
34837;DHT22;21053;50.848;4.652;2023-06-22T02:52:55;20.30;99.90
34837;DHT22;21053;50.848;4.652;2023-06-22T02:55:22;20.40;99.90
34837;DHT22;21053;50.848;4.652;2023-06-22T02:57:50;20.50;99.90
34837;DHT22;21053;50.848;4.652;2023-06-22T03:00:19;20.70;99.90
34837;DHT22;21053;50.848;4.652;2023-06-22T03:02:48;20.60;99.90
34837;DHT22;21053;50.848;4.652;2023-06-22T03:05:15;20.50;99.90
34837;DHT22;21053;50.848;4.652;2023-06-22T03:07:45;20.40;99.90
34837;DHT22;21053;50.848;4.652;2023-06-22T03:10:13;20.40;99.90
34837;DHT22;21053;50.848;4.652;2023-06-22T03:12:41;20.30;99.90
34837;DHT22;21053;50.848;4.652;2023-06-22T03:15:12;20.40;99.90
34837;DHT22;21053;50.848;4.652;2023-06-22T03:17:40;20.40;99.90
34837;DHT22;21053;50.848;4.652;2023-06-22T03:20:13;20.40;99.90
34837;DHT22;21053;50.848;4.652;2023-06-22T03:22:41;20.50;99.90
34837;DHT22;21053;50.848;4.652;2023-06-22T03:25:10;20.60;99.90
34837;DHT22;21053;50.848;4.652;2023-06-22T03:27:37;20.60;99.90
34837;DHT22;21053;50.848;4.652;2023-06-22T03:30:06;20.60;99.90
34837;DHT22;21053;50.848;4.652;2023-06-22T03:32:33;20.70;99.90
34837;DHT22;21053;50.848;4.652;2023-06-22T03:34:59;20.70;99.90
34837;DHT22;21053;50.848;4.652;2023-06-22T03:37:30;20.60;99.90
34837;DHT22;21053;50.848;4.652;2023-06-22T03:39:59;20.60;99.90
34837;DHT22;21053;50.848;4.652;2023-06-22T03:42:28;20.50;99.90
34837;DHT22;21053;50.848;4.652;2023-06-22T03:44:54;20.60;99.90
34837;DHT22;21053;50.848;4.652;2023-06-22T03:47:26;20.70;99.90
34837;DHT22;21053;50.848;4.652;2023-06-22T03:49:52;20.70;99.90
34837;DHT22;21053;50.848;4.652;2023-06-22T03:52:23;20.70;99.90
34837;DHT22;21053;50.848;4.652;2023-06-22T03:54:51;20.70;99.90
34837;DHT22;21053;50.848;4.652;2023-06-22T03:57:19;20.70;99.90
34837;DHT22;21053;50.848;4.652;2023-06-22T03:59:45;20.80;99.90
34837;DHT22;21053;50.848;4.652;2023-06-22T04:02:11;20.80;99.90
34837;DHT22;21053;50.848;4.652;2023-06-22T04:04:37;20.90;99.90
34837;DHT22;21053;50.848;4.652;2023-06-22T04:07:07;21.00;99.90
34837;DHT22;21053;50.848;4.652;2023-06-22T04:09:35;21.10;99.90
34837;DHT22;21053;50.848;4.652;2023-06-22T04:12:01;21.00;99.90
34837;DHT22;21053;50.848;4.652;2023-06-22T04:14:27;20.90;99.90
34837;DHT22;21053;50.848;4.652;2023-06-22T04:16:55;20.90;99.90
34837;DHT22;21053;50.848;4.652;2023-06-22T04:19:24;20.90;99.90
34837;DHT22;21053;50.848;4.652;2023-06-22T04:21:50;21.00;99.90
34837;DHT22;21053;50.848;4.652;2023-06-22T04:24:19;21.00;99.90
34837;DHT22;21053;50.848;4.652;2023-06-22T04:26:47;20.90;99.90
34837;DHT22;21053;50.848;4.652;2023-06-22T04:29:13;20.90;99.90
34837;DHT22;21053;50.848;4.652;2023-06-22T04:31:41;21.10;99.90
34837;DHT22;21053;50.848;4.652;2023-06-22T04:34:10;21.20;99.90
34837;DHT22;21053;50.848;4.652;2023-06-22T04:36:41;21.20;99.90
34837;DHT22;21053;50.848;4.652;2023-06-22T04:39:11;21.20;99.90
34837;DHT22;21053;50.848;4.652;2023-06-22T04:41:38;21.20;99.90
34837;DHT22;21053;50.848;4.652;2023-06-22T04:44:11;21.10;99.90
34837;DHT22;21053;50.848;4.652;2023-06-22T04:46:37;21.10;99.90
34837;DHT22;21053;50.848;4.652;2023-06-22T04:49:08;21.00;99.90
34837;DHT22;21053;50.848;4.652;2023-06-22T04:51:44;21.10;99.90
34837;DHT22;21053;50.848;4.652;2023-06-22T04:54:10;21.00;99.90
34837;DHT22;21053;50.848;4.652;2023-06-22T04:56:39;21.00;99.90
34837;DHT22;21053;50.848;4.652;2023-06-22T04:59:07;21.00;99.90
34837;DHT22;21053;50.848;4.652;2023-06-22T05:01:35;21.00;99.90
34837;DHT22;21053;50.848;4.652;2023-06-22T05:04:01;21.00;99.90
34837;DHT22;21053;50.848;4.652;2023-06-22T05:06:29;21.00;99.90
34837;DHT22;21053;50.848;4.652;2023-06-22T05:08:58;20.90;99.90
34837;DHT22;21053;50.848;4.652;2023-06-22T05:11:27;21.00;99.90
34837;DHT22;21053;50.848;4.652;2023-06-22T05:13:56;21.00;99.90
34837;DHT22;21053;50.848;4.652;2023-06-22T05:16:25;20.90;99.90
34837;DHT22;21053;50.848;4.652;2023-06-22T05:18:52;20.80;99.90
34837;DHT22;21053;50.848;4.652;2023-06-22T05:21:23;20.90;99.90
34837;DHT22;21053;50.848;4.652;2023-06-22T05:23:51;20.80;99.90
34837;DHT22;21053;50.848;4.652;2023-06-22T05:26:19;20.90;99.90
34837;DHT22;21053;50.848;4.652;2023-06-22T05:28:47;20.90;99.90
34837;DHT22;21053;50.848;4.652;2023-06-22T05:31:16;21.00;99.90
34837;DHT22;21053;50.848;4.652;2023-06-22T05:33:50;21.10;99.90
34837;DHT22;21053;50.848;4.652;2023-06-22T05:36:17;21.20;99.90
34837;DHT22;21053;50.848;4.652;2023-06-22T05:38:49;21.20;99.90
34837;DHT22;21053;50.848;4.652;2023-06-22T05:41:16;21.20;99.90
34837;DHT22;21053;50.848;4.652;2023-06-22T05:43:45;21.30;99.90
34837;DHT22;21053;50.848;4.652;2023-06-22T05:46:10;21.20;99.90
34837;DHT22;21053;50.848;4.652;2023-06-22T05:48:43;21.30;99.90
34837;DHT22;21053;50.848;4.652;2023-06-22T05:51:09;21.20;99.90
34837;DHT22;21053;50.848;4.652;2023-06-22T05:53:38;21.30;99.90
34837;DHT22;21053;50.848;4.652;2023-06-22T05:56:06;21.40;99.90
34837;DHT22;21053;50.848;4.652;2023-06-22T05:58:35;21.40;99.90
34837;DHT22;21053;50.848;4.652;2023-06-22T06:01:04;21.40;99.90
34837;DHT22;21053;50.848;4.652;2023-06-22T06:03:30;21.40;99.90
34837;DHT22;21053;50.848;4.652;2023-06-22T06:05:59;21.30;99.90
34837;DHT22;21053;50.848;4.652;2023-06-22T06:08:25;21.30;99.90
34837;DHT22;21053;50.848;4.652;2023-06-22T06:10:50;21.40;99.90
34837;DHT22;21053;50.848;4.652;2023-06-22T06:13:18;21.30;99.90
34837;DHT22;21053;50.848;4.652;2023-06-22T06:15:47;21.30;99.90
34837;DHT22;21053;50.848;4.652;2023-06-22T06:18:14;21.30;99.90
34837;DHT22;21053;50.848;4.652;2023-06-22T06:20:40;21.40;99.90
34837;DHT22;21053;50.848;4.652;2023-06-22T06:23:07;21.40;99.90
34837;DHT22;21053;50.848;4.652;2023-06-22T06:25:36;21.50;99.90
34837;DHT22;21053;50.848;4.652;2023-06-22T06:28:01;21.60;99.90
34837;DHT22;21053;50.848;4.652;2023-06-22T06:30:27;21.70;99.90
34837;DHT22;21053;50.848;4.652;2023-06-22T06:32:54;21.80;99.90
34837;DHT22;21053;50.848;4.652;2023-06-22T06:35:21;21.90;99.90
34837;DHT22;21053;50.848;4.652;2023-06-22T06:37:50;22.00;99.90
34837;DHT22;21053;50.848;4.652;2023-06-22T06:40:17;22.00;99.90
34837;DHT22;21053;50.848;4.652;2023-06-22T06:42:49;22.00;99.90
34837;DHT22;21053;50.848;4.652;2023-06-22T06:45:19;22.10;99.90
34837;DHT22;21053;50.848;4.652;2023-06-22T06:47:49;22.20;99.90
34837;DHT22;21053;50.848;4.652;2023-06-22T06:50:18;22.20;99.90
34837;DHT22;21053;50.848;4.652;2023-06-22T06:52:45;22.20;99.90
34837;DHT22;21053;50.848;4.652;2023-06-22T06:55:14;22.30;99.90
34837;DHT22;21053;50.848;4.652;2023-06-22T06:57:42;22.30;99.90
34837;DHT22;21053;50.848;4.652;2023-06-22T07:00:11;22.30;99.90
34837;DHT22;21053;50.848;4.652;2023-06-22T07:02:45;22.40;99.90
34837;DHT22;21053;50.848;4.652;2023-06-22T07:05:12;22.40;99.90
34837;DHT22;21053;50.848;4.652;2023-06-22T07:07:38;22.40;99.90
34837;DHT22;21053;50.848;4.652;2023-06-22T07:10:05;22.40;99.90
34837;DHT22;21053;50.848;4.652;2023-06-22T07:12:32;22.40;99.90
34837;DHT22;21053;50.848;4.652;2023-06-22T07:15:06;22.50;99.90
34837;DHT22;21053;50.848;4.652;2023-06-22T07:17:36;22.50;99.90
34837;DHT22;21053;50.848;4.652;2023-06-22T07:20:04;22.60;99.90
34837;DHT22;21053;50.848;4.652;2023-06-22T07:22:40;22.60;99.90
34837;DHT22;21053;50.848;4.652;2023-06-22T07:25:07;22.70;99.90
34837;DHT22;21053;50.848;4.652;2023-06-22T07:27:45;22.70;99.90
34837;DHT22;21053;50.848;4.652;2023-06-22T07:30:12;22.70;99.90
34837;DHT22;21053;50.848;4.652;2023-06-22T07:32:40;22.70;99.90
34837;DHT22;21053;50.848;4.652;2023-06-22T07:35:07;22.70;99.90
34837;DHT22;21053;50.848;4.652;2023-06-22T07:37:33;22.70;99.90
34837;DHT22;21053;50.848;4.652;2023-06-22T07:40:00;22.60;99.90
34837;DHT22;21053;50.848;4.652;2023-06-22T07:42:29;22.70;99.90
34837;DHT22;21053;50.848;4.652;2023-06-22T07:45:00;22.70;99.90
34837;DHT22;21053;50.848;4.652;2023-06-22T07:47:30;22.80;99.50
34837;DHT22;21053;50.848;4.652;2023-06-22T07:49:58;22.80;99.40
34837;DHT22;21053;50.848;4.652;2023-06-22T07:52:30;22.70;99.00
34837;DHT22;21053;50.848;4.652;2023-06-22T07:54:56;22.70;99.30
34837;DHT22;21053;50.848;4.652;2023-06-22T07:57:25;22.50;99.60
34837;DHT22;21053;50.848;4.652;2023-06-22T08:00:04;22.40;99.90
34837;DHT22;21053;50.848;4.652;2023-06-22T08:02:34;22.40;99.90
34837;DHT22;21053;50.848;4.652;2023-06-22T08:05:02;22.40;99.90
34837;DHT22;21053;50.848;4.652;2023-06-22T08:07:31;22.40;99.90
34837;DHT22;21053;50.848;4.652;2023-06-22T08:09:59;22.30;99.90
34837;DHT22;21053;50.848;4.652;2023-06-22T08:12:27;22.30;99.90
34837;DHT22;21053;50.848;4.652;2023-06-22T08:14:56;22.30;99.90
34837;DHT22;21053;50.848;4.652;2023-06-22T08:17:26;22.30;99.90
34837;DHT22;21053;50.848;4.652;2023-06-22T08:19:54;22.30;99.90
34837;DHT22;21053;50.848;4.652;2023-06-22T08:22:22;22.20;99.90
34837;DHT22;21053;50.848;4.652;2023-06-22T08:24:49;22.20;99.90
34837;DHT22;21053;50.848;4.652;2023-06-22T08:27:15;22.30;99.90
34837;DHT22;21053;50.848;4.652;2023-06-22T08:29:42;22.30;99.90
34837;DHT22;21053;50.848;4.652;2023-06-22T08:32:09;22.30;99.90
34837;DHT22;21053;50.848;4.652;2023-06-22T08:34:38;22.20;99.90
34837;DHT22;21053;50.848;4.652;2023-06-22T08:37:09;22.20;99.90
34837;DHT22;21053;50.848;4.652;2023-06-22T08:39:36;22.20;99.90
34837;DHT22;21053;50.848;4.652;2023-06-22T08:42:02;22.30;99.90
34837;DHT22;21053;50.848;4.652;2023-06-22T08:44:28;22.40;99.90
34837;DHT22;21053;50.848;4.652;2023-06-22T08:46:54;22.40;99.90
34837;DHT22;21053;50.848;4.652;2023-06-22T08:49:20;22.30;99.90
34837;DHT22;21053;50.848;4.652;2023-06-22T08:51:45;22.30;99.90
34837;DHT22;21053;50.848;4.652;2023-06-22T08:54:14;22.30;99.90
34837;DHT22;21053;50.848;4.652;2023-06-22T08:56:39;22.40;99.90
34837;DHT22;21053;50.848;4.652;2023-06-22T08:59:09;22.30;99.90
34837;DHT22;21053;50.848;4.652;2023-06-22T09:01:38;22.20;99.90
34837;DHT22;21053;50.848;4.652;2023-06-22T09:04:06;22.10;99.90
34837;DHT22;21053;50.848;4.652;2023-06-22T09:06:46;22.10;99.90
34837;DHT22;21053;50.848;4.652;2023-06-22T09:09:13;22.00;99.90
34837;DHT22;21053;50.848;4.652;2023-06-22T09:11:40;22.00;99.90
34837;DHT22;21053;50.848;4.652;2023-06-22T09:14:06;21.90;99.90
34837;DHT22;21053;50.848;4.652;2023-06-22T09:16:34;21.80;99.90
34837;DHT22;21053;50.848;4.652;2023-06-22T09:19:02;21.80;99.90
34837;DHT22;21053;50.848;4.652;2023-06-22T09:21:28;21.70;99.90
34837;DHT22;21053;50.848;4.652;2023-06-22T09:23:55;21.80;99.90
34837;DHT22;21053;50.848;4.652;2023-06-22T09:26:22;21.90;99.90
34837;DHT22;21053;50.848;4.652;2023-06-22T09:28:51;21.90;99.90
34837;DHT22;21053;50.848;4.652;2023-06-22T09:31:19;21.90;99.90
34837;DHT22;21053;50.848;4.652;2023-06-22T09:33:54;21.90;99.90
34837;DHT22;21053;50.848;4.652;2023-06-22T09:36:22;21.80;99.90
34837;DHT22;21053;50.848;4.652;2023-06-22T09:38:49;21.80;99.90
34837;DHT22;21053;50.848;4.652;2023-06-22T09:41:20;21.70;99.90
34837;DHT22;21053;50.848;4.652;2023-06-22T09:43:46;21.60;99.90
34837;DHT22;21053;50.848;4.652;2023-06-22T09:46:17;21.50;99.90
34837;DHT22;21053;50.848;4.652;2023-06-22T09:48:43;21.40;99.90
34837;DHT22;21053;50.848;4.652;2023-06-22T09:51:08;21.30;99.90
34837;DHT22;21053;50.848;4.652;2023-06-22T09:53:37;21.50;99.90
34837;DHT22;21053;50.848;4.652;2023-06-22T09:56:06;21.30;99.90
34837;DHT22;21053;50.848;4.652;2023-06-22T09:58:35;21.20;99.90
34837;DHT22;21053;50.848;4.652;2023-06-22T10:08:06;21.10;99.90
34837;DHT22;21053;50.848;4.652;2023-06-22T10:10:42;21.00;99.90
34837;DHT22;21053;50.848;4.652;2023-06-22T10:13:17;21.10;99.90
34837;DHT22;21053;50.848;4.652;2023-06-22T10:15:46;21.00;99.90
34837;DHT22;21053;50.848;4.652;2023-06-22T10:18:18;20.90;99.90
34837;DHT22;21053;50.848;4.652;2023-06-22T10:20:55;21.00;99.90
34837;DHT22;21053;50.848;4.652;2023-06-22T10:23:24;20.90;99.90
34837;DHT22;21053;50.848;4.652;2023-06-22T10:25:51;20.80;99.90
34837;DHT22;21053;50.848;4.652;2023-06-22T10:28:17;20.80;99.90
34837;DHT22;21053;50.848;4.652;2023-06-22T10:30:46;20.70;99.90
34837;DHT22;21053;50.848;4.652;2023-06-22T10:33:15;20.60;99.90
34837;DHT22;21053;50.848;4.652;2023-06-22T10:35:44;20.60;99.90
34837;DHT22;21053;50.848;4.652;2023-06-22T10:38:11;20.60;99.90
34837;DHT22;21053;50.848;4.652;2023-06-22T10:40:39;20.50;99.90
34837;DHT22;21053;50.848;4.652;2023-06-22T10:43:08;20.50;99.90
34837;DHT22;21053;50.848;4.652;2023-06-22T10:45:34;20.60;99.90
34837;DHT22;21053;50.848;4.652;2023-06-22T10:48:01;20.50;99.90
34837;DHT22;21053;50.848;4.652;2023-06-22T10:50:29;20.40;99.90
34837;DHT22;21053;50.848;4.652;2023-06-22T10:53:01;20.30;99.90
34837;DHT22;21053;50.848;4.652;2023-06-22T10:55:28;20.30;99.90
34837;DHT22;21053;50.848;4.652;2023-06-22T10:57:56;20.20;99.90
34837;DHT22;21053;50.848;4.652;2023-06-22T11:00:22;20.10;99.90
34837;DHT22;21053;50.848;4.652;2023-06-22T11:02:51;20.10;99.90
34837;DHT22;21053;50.848;4.652;2023-06-22T11:05:16;20.10;99.90
34837;DHT22;21053;50.848;4.652;2023-06-22T11:07:43;20.00;99.90
34837;DHT22;21053;50.848;4.652;2023-06-22T11:10:16;20.10;99.90
34837;DHT22;21053;50.848;4.652;2023-06-22T11:12:45;20.10;99.90
34837;DHT22;21053;50.848;4.652;2023-06-22T11:15:11;20.20;99.90
34837;DHT22;21053;50.848;4.652;2023-06-22T11:17:37;20.20;99.90
34837;DHT22;21053;50.848;4.652;2023-06-22T11:20:03;20.10;99.90
34837;DHT22;21053;50.848;4.652;2023-06-22T11:22:41;20.20;99.90
34837;DHT22;21053;50.848;4.652;2023-06-22T11:25:09;20.20;99.90
34837;DHT22;21053;50.848;4.652;2023-06-22T11:27:38;20.20;99.90
34837;DHT22;21053;50.848;4.652;2023-06-22T11:30:04;20.20;99.90
34837;DHT22;21053;50.848;4.652;2023-06-22T11:32:31;20.20;99.90
34837;DHT22;21053;50.848;4.652;2023-06-22T11:34:59;20.20;99.90
34837;DHT22;21053;50.848;4.652;2023-06-22T11:39:55;20.30;99.90
34837;DHT22;21053;50.848;4.652;2023-06-22T11:42:22;20.40;99.90
34837;DHT22;21053;50.848;4.652;2023-06-22T11:44:51;20.40;99.90
34837;DHT22;21053;50.848;4.652;2023-06-22T11:49:48;20.40;99.90
34837;DHT22;21053;50.848;4.652;2023-06-22T11:52:16;20.30;99.90
34837;DHT22;21053;50.848;4.652;2023-06-22T11:54:45;20.30;99.90
34837;DHT22;21053;50.848;4.652;2023-06-22T11:57:11;20.30;99.90
34837;DHT22;21053;50.848;4.652;2023-06-22T11:59:39;20.30;99.90
34837;DHT22;21053;50.848;4.652;2023-06-22T12:02:07;20.30;99.90
34837;DHT22;21053;50.848;4.652;2023-06-22T12:04:41;20.20;99.90
34837;DHT22;21053;50.848;4.652;2023-06-22T12:07:08;20.30;99.90
34837;DHT22;21053;50.848;4.652;2023-06-22T12:09:34;20.20;99.90
34837;DHT22;21053;50.848;4.652;2023-06-22T12:12:02;20.20;99.90
34837;DHT22;21053;50.848;4.652;2023-06-22T12:16:56;20.20;99.90
34837;DHT22;21053;50.848;4.652;2023-06-22T12:19:25;20.30;99.90
34837;DHT22;21053;50.848;4.652;2023-06-22T12:21:52;20.30;99.90
34837;DHT22;21053;50.848;4.652;2023-06-22T12:24:20;20.30;99.90
34837;DHT22;21053;50.848;4.652;2023-06-22T12:26:49;20.30;99.90
34837;DHT22;21053;50.848;4.652;2023-06-22T12:29:21;20.20;99.90
34837;DHT22;21053;50.848;4.652;2023-06-22T12:31:47;20.30;99.90
34837;DHT22;21053;50.848;4.652;2023-06-22T12:34:15;20.30;99.90
34837;DHT22;21053;50.848;4.652;2023-06-22T12:36:43;20.20;99.90
34837;DHT22;21053;50.848;4.652;2023-06-22T12:39:12;20.30;99.90
34837;DHT22;21053;50.848;4.652;2023-06-22T12:41:46;20.30;99.90
34837;DHT22;21053;50.848;4.652;2023-06-22T12:44:13;20.20;99.90
34837;DHT22;21053;50.848;4.652;2023-06-22T12:46:39;20.30;99.90
34837;DHT22;21053;50.848;4.652;2023-06-22T12:49:06;20.40;99.90
34837;DHT22;21053;50.848;4.652;2023-06-22T12:51:40;20.30;99.90
34837;DHT22;21053;50.848;4.652;2023-06-22T12:54:10;20.20;99.90
34837;DHT22;21053;50.848;4.652;2023-06-22T12:56:39;20.20;99.90
34837;DHT22;21053;50.848;4.652;2023-06-22T12:59:07;20.10;99.90
34837;DHT22;21053;50.848;4.652;2023-06-22T13:01:38;20.10;99.90
34837;DHT22;21053;50.848;4.652;2023-06-22T13:04:05;20.00;99.90
34837;DHT22;21053;50.848;4.652;2023-06-22T13:06:34;19.90;99.90
34837;DHT22;21053;50.848;4.652;2023-06-22T13:09:02;19.90;99.90
34837;DHT22;21053;50.848;4.652;2023-06-22T13:11:31;19.90;99.90
34837;DHT22;21053;50.848;4.652;2023-06-22T13:13:57;20.00;99.90
34837;DHT22;21053;50.848;4.652;2023-06-22T13:16:25;20.10;99.90
34837;DHT22;21053;50.848;4.652;2023-06-22T13:18:54;20.10;99.90
34837;DHT22;21053;50.848;4.652;2023-06-22T13:21:23;20.10;99.90
34837;DHT22;21053;50.848;4.652;2023-06-22T13:23:50;20.10;99.90
34837;DHT22;21053;50.848;4.652;2023-06-22T13:26:16;20.00;99.90
34837;DHT22;21053;50.848;4.652;2023-06-22T13:28:43;20.00;99.90
34837;DHT22;21053;50.848;4.652;2023-06-22T13:31:09;20.00;99.90
34837;DHT22;21053;50.848;4.652;2023-06-22T13:33:35;20.00;99.90
34837;DHT22;21053;50.848;4.652;2023-06-22T13:36:00;20.00;99.90
34837;DHT22;21053;50.848;4.652;2023-06-22T13:38:29;20.00;99.90
34837;DHT22;21053;50.848;4.652;2023-06-22T13:40:56;20.10;99.90
34837;DHT22;21053;50.848;4.652;2023-06-22T13:43:27;20.10;99.90
34837;DHT22;21053;50.848;4.652;2023-06-22T13:45:55;20.10;99.90
34837;DHT22;21053;50.848;4.652;2023-06-22T13:48:24;20.00;99.90
34837;DHT22;21053;50.848;4.652;2023-06-22T13:50:54;19.90;99.90
34837;DHT22;21053;50.848;4.652;2023-06-22T13:53:21;20.00;99.90
34837;DHT22;21053;50.848;4.652;2023-06-22T13:55:50;20.10;99.90
34837;DHT22;21053;50.848;4.652;2023-06-22T13:58:18;20.10;99.90
34837;DHT22;21053;50.848;4.652;2023-06-22T14:00:48;20.10;99.90
34837;DHT22;21053;50.848;4.652;2023-06-22T14:03:20;20.00;99.90
34837;DHT22;21053;50.848;4.652;2023-06-22T14:05:48;20.10;99.90
34837;DHT22;21053;50.848;4.652;2023-06-22T14:08:15;20.10;99.90
34837;DHT22;21053;50.848;4.652;2023-06-22T14:10:47;20.10;99.90
34837;DHT22;21053;50.848;4.652;2023-06-22T14:13:13;20.00;99.90
34837;DHT22;21053;50.848;4.652;2023-06-22T14:15:42;20.00;99.90
34837;DHT22;21053;50.848;4.652;2023-06-22T14:18:11;20.00;99.90
34837;DHT22;21053;50.848;4.652;2023-06-22T14:20:40;20.00;99.90
34837;DHT22;21053;50.848;4.652;2023-06-22T14:23:09;20.00;99.90
34837;DHT22;21053;50.848;4.652;2023-06-22T14:25:34;19.90;99.90
34837;DHT22;21053;50.848;4.652;2023-06-22T14:28:03;19.90;99.90
34837;DHT22;21053;50.848;4.652;2023-06-22T14:30:32;20.00;99.90
34837;DHT22;21053;50.848;4.652;2023-06-22T14:33:00;20.00;99.90
34837;DHT22;21053;50.848;4.652;2023-06-22T14:35:26;19.90;99.90
34837;DHT22;21053;50.848;4.652;2023-06-22T14:37:52;19.90;99.90
34837;DHT22;21053;50.848;4.652;2023-06-22T14:40:21;19.90;99.90
34837;DHT22;21053;50.848;4.652;2023-06-22T14:42:48;20.00;99.90
34837;DHT22;21053;50.848;4.652;2023-06-22T14:45:14;19.90;99.90
34837;DHT22;21053;50.848;4.652;2023-06-22T14:47:42;20.00;99.90
34837;DHT22;21053;50.848;4.652;2023-06-22T14:50:13;20.00;99.90
34837;DHT22;21053;50.848;4.652;2023-06-22T14:52:41;20.00;99.90
34837;DHT22;21053;50.848;4.652;2023-06-22T14:55:07;20.00;99.90
34837;DHT22;21053;50.848;4.652;2023-06-22T14:57:36;20.00;99.90
34837;DHT22;21053;50.848;4.652;2023-06-22T15:00:03;20.00;99.90
34837;DHT22;21053;50.848;4.652;2023-06-22T15:02:31;20.00;99.90
34837;DHT22;21053;50.848;4.652;2023-06-22T15:04:58;19.90;99.90
34837;DHT22;21053;50.848;4.652;2023-06-22T15:07:25;20.00;99.90
34837;DHT22;21053;50.848;4.652;2023-06-22T15:09:53;20.00;99.90
34837;DHT22;21053;50.848;4.652;2023-06-22T15:12:25;20.10;99.90
34837;DHT22;21053;50.848;4.652;2023-06-22T15:14:51;20.10;99.90
34837;DHT22;21053;50.848;4.652;2023-06-22T15:17:17;20.20;99.90
34837;DHT22;21053;50.848;4.652;2023-06-22T15:19:46;20.20;99.90
34837;DHT22;21053;50.848;4.652;2023-06-22T15:22:13;20.10;99.90
34837;DHT22;21053;50.848;4.652;2023-06-22T15:24:40;20.20;99.90
34837;DHT22;21053;50.848;4.652;2023-06-22T15:27:08;20.20;99.90
34837;DHT22;21053;50.848;4.652;2023-06-22T15:29:34;20.30;99.90
34837;DHT22;21053;50.848;4.652;2023-06-22T15:32:00;20.40;99.90
34837;DHT22;21053;50.848;4.652;2023-06-22T15:34:28;20.30;99.90
34837;DHT22;21053;50.848;4.652;2023-06-22T15:36:57;20.30;99.90
34837;DHT22;21053;50.848;4.652;2023-06-22T15:39:23;20.30;99.90
34837;DHT22;21053;50.848;4.652;2023-06-22T15:41:50;20.40;99.90
34837;DHT22;21053;50.848;4.652;2023-06-22T15:44:23;20.40;99.90
34837;DHT22;21053;50.848;4.652;2023-06-22T15:46:50;20.40;99.90
34837;DHT22;21053;50.848;4.652;2023-06-22T15:49:20;20.50;99.90
34837;DHT22;21053;50.848;4.652;2023-06-22T15:51:47;20.40;99.90
34837;DHT22;21053;50.848;4.652;2023-06-22T15:54:13;20.50;99.90
34837;DHT22;21053;50.848;4.652;2023-06-22T15:56:39;20.50;99.90
34837;DHT22;21053;50.848;4.652;2023-06-22T15:59:07;20.50;99.90
34837;DHT22;21053;50.848;4.652;2023-06-22T16:01:33;20.50;99.90
34837;DHT22;21053;50.848;4.652;2023-06-22T16:04:01;20.50;99.90
34837;DHT22;21053;50.848;4.652;2023-06-22T16:06:31;20.50;99.90